Terminal Aerodrome Forecast
Issued by NWS Caribou, ME

Home | Current Version | Previous Version | Text Only | Print | Product List | Glossary On
Versions: 1 2 3 4 5 6 7 8 9 10 11 12 13 14 15
000
FTUS41 KCAR 222336
TAFCAR
TAF
KCAR 222336Z 2300/2324 VRB03KT P6SM BKN050
     FM230800 17006KT P6SM OVC025
     FM231300 17006KT 6SM -FZRAPL BR OVC015
     FM231400 17006KT 6SM -RA BR OVC015
     FM231800 18010KT P6SM VCSH OVC008=

USA.gov is the U.S. government's official web portal to all federal, state and local government web resources and services.